Etusivu
METAR-TAF:

METAR-TAF

Lentoasemat :

Kangiqsualujjuaq, Quebec, Kanada

Leveyspiiri: 58-43N, Pituuspiiri: 065-59W, korkeus merenpinnasta: 60 m

Tämänhetkinen sää

Tämä raportti tehtiin 5 tuntia ja 33 minuuttia sitten, kello 19.00 UTC
Tuuli 12 kn pohjoisen/luoteesta puuskistuen 17 kn:hen
Lämpötila 7°C
Kosteus 76%
Ilmanpaine 1006 hPa
Näkyvyys: 24.1 km
Hajanaisia pilviä 6400 ft:n korkeudessa
Hajonneita pilviä 12000 ft:n korkeudessa

METAR: CYLU 031900Z 33012G17KT 15SM SCT064 BKN120 07/03 A2972 RMK SC3AC4 LAST STFD OBS/NEXT 041200 UTC PRESFR SLP071

Aika: 20:33 (00:33 UTC)


TAF: puuttuu

Säähavainnot ja -ennusteet yli 4000 lentoasemalta (METAR- ja TAF-raportit).

Käytössä olevat sääasemat on merkitty karttaan keltaisilla ja punaisilla pisteillä.

Aseta hiiri pisteen päälle nähdäksesi sääaseman nimen.

Klikkaa sitten nähdäksesi säähavainnot ja -ennusteet.

Kartan vaihtaminen: klikkaa mustalla rastilla varustettuja vihreitä pisteitä, niin voit zoomata sisään; viivalla varustettua vihreää pistettä, niin voit zoomata ulos tai vihreitä nuolia, niin pääset viereisille kartoille.


METAR-TAF: